createdAt,value
2018-08-23T00:01:29.665Z,25.30
2018-08-23T00:04:02.752Z,25.17
2018-08-23T00:06:31.129Z,25.40
2018-08-23T00:08:59.519Z,24.92
2018-08-23T00:11:31.540Z,26.20
2018-08-23T00:13:59.902Z,26.80
2018-08-23T00:16:36.574Z,26.70
2018-08-23T00:19:05.163Z,26.65
2018-08-23T00:21:37.945Z,26.55
2018-08-23T00:24:09.562Z,26.70
2018-08-23T00:26:39.098Z,26.20
2018-08-23T00:29:17.192Z,25.35
2018-08-23T00:31:52.302Z,26.15
2018-08-23T00:34:21.550Z,26.93
2018-08-23T00:36:49.891Z,28.25
2018-08-23T00:39:18.400Z,29.27
2018-08-23T00:41:52.026Z,28.47
2018-08-23T00:44:20.347Z,28.12
2018-08-23T00:46:48.739Z,28.45
2018-08-23T00:49:17.728Z,29.02
2018-08-23T00:51:46.504Z,28.62
2018-08-23T00:54:14.913Z,28.00
2018-08-23T00:56:43.253Z,26.20
2018-08-23T00:59:12.337Z,28.10
2018-08-23T01:01:45.467Z,29.07
2018-08-23T01:04:18.280Z,28.10
2018-08-23T01:06:46.757Z,27.55
2018-08-23T01:09:15.237Z,28.32
2018-08-23T01:11:46.256Z,28.62
2018-08-23T01:14:14.608Z,27.70
2018-08-23T01:16:48.883Z,28.00
2018-08-23T01:19:22.604Z,29.10
2018-08-23T01:21:55.127Z,29.07
2018-08-23T01:24:27.844Z,30.70
2018-08-23T01:26:56.664Z,29.90
2018-08-23T01:29:28.890Z,29.90
2018-08-23T01:32:16.123Z,30.80
2018-08-23T01:34:44.455Z,31.45
2018-08-23T01:37:18.479Z,31.40
2018-08-23T01:39:46.845Z,32.50
2018-08-23T01:42:15.193Z,32.63
2018-08-23T01:44:43.562Z,34.65
2018-08-23T01:47:11.989Z,34.92
2018-08-23T01:49:40.297Z,36.98
2018-08-23T01:52:08.658Z,38.20
2018-08-23T01:54:37.024Z,37.28
2018-08-23T01:57:05.446Z,37.73
2018-08-23T01:59:33.772Z,37.95
2018-08-23T02:02:06.272Z,37.00
2018-08-23T02:04:34.661Z,39.35
2018-08-23T02:07:02.978Z,40.28
2018-08-23T02:09:31.336Z,39.30
2018-08-23T02:11:59.730Z,39.30
2018-08-23T02:14:30.220Z,39.30
2018-08-23T02:16:58.576Z,40.20
2018-08-23T02:19:27.026Z,40.83
2018-08-23T02:21:55.385Z,40.50
2018-08-23T02:24:29.712Z,41.10
2018-08-23T02:26:58.080Z,41.40
2018-08-23T02:29:37.789Z,41.33
2018-08-23T02:32:06.885Z,42.85
2018-08-23T02:34:42.261Z,41.02
2018-08-23T02:37:12.373Z,41.70
2018-08-23T02:39:41.130Z,42.27
2018-08-23T02:42:17.700Z,41.65
2018-08-23T02:44:47.017Z,41.73
2018-08-23T02:47:16.212Z,42.40
2018-08-23T02:49:44.650Z,43.00
2018-08-23T02:52:13.012Z,42.67
2018-08-23T02:54:41.332Z,45.30
2018-08-23T02:57:11.954Z,44.40
2018-08-23T02:59:40.299Z,44.67
2018-08-23T03:02:12.839Z,47.95
2018-08-23T03:04:41.266Z,47.15
2018-08-23T03:07:09.604Z,47.17
2018-08-23T03:09:39.887Z,46.60
2018-08-23T03:12:10.447Z,46.95
2018-08-23T03:14:39.307Z,46.37
2018-08-23T03:17:22.471Z,45.15
2018-08-23T03:20:11.104Z,46.33
2018-08-23T03:22:39.869Z,44.90
2018-08-23T03:25:17.590Z,45.35
2018-08-23T03:27:45.978Z,45.20
2018-08-23T03:30:15.585Z,46.65
2018-08-23T03:32:43.956Z,46.18
2018-08-23T03:35:12.303Z,45.48
2018-08-23T03:37:40.637Z,46.02
2018-08-23T03:40:10.613Z,46.75
2018-08-23T03:42:39.018Z,45.23
2018-08-23T03:45:12.436Z,45.98
2018-08-23T03:47:46.044Z,44.38
2018-08-23T03:50:14.422Z,45.12
2018-08-23T03:52:46.639Z,45.03
2018-08-23T03:55:18.105Z,45.85
2018-08-23T03:57:50.820Z,45.30
2018-08-23T04:00:24.405Z,48.08
2018-08-23T04:02:52.714Z,46.80
2018-08-23T04:05:21.317Z,45.05
2018-08-23T04:07:49.644Z,46.50
2018-08-23T04:10:17.996Z,44.73
2018-08-23T04:12:46.316Z,44.27
2018-08-23T04:15:27.007Z,45.67
2018-08-23T04:17:55.272Z,45.35
2018-08-23T04:20:23.961Z,45.92
2018-08-23T04:22:52.527Z,44.40
2018-08-23T04:25:20.813Z,44.10
2018-08-23T04:27:49.202Z,43.28
2018-08-23T04:30:17.543Z,44.70
2018-08-23T04:32:48.057Z,43.73
2018-08-23T04:35:22.506Z,43.35
2018-08-23T04:37:51.434Z,42.90
2018-08-23T04:40:19.784Z,43.75
2018-08-23T04:42:48.154Z,43.23
2018-08-23T04:45:22.651Z,44.13
2018-08-23T04:48:08.819Z,45.67
2018-08-23T04:50:38.599Z,43.83
2018-08-23T04:53:06.980Z,45.58
2018-08-23T04:55:35.353Z,44.50
2018-08-23T04:58:04.301Z,44.70
2018-08-23T05:00:33.009Z,45.40
2018-08-23T05:03:01.425Z,45.48
2018-08-23T05:05:29.782Z,45.35
2018-08-23T05:07:58.129Z,45.23
2018-08-23T05:10:26.509Z,46.35
2018-08-23T05:12:54.953Z,45.12
2018-08-23T05:15:23.294Z,46.18
2018-08-23T05:17:51.635Z,46.20
2018-08-23T05:20:20.030Z,44.98
2018-08-23T05:22:53.835Z,45.45
2018-08-23T05:25:23.320Z,44.70
2018-08-23T05:28:05.130Z,44.43
2018-08-23T05:30:33.838Z,45.10
2018-08-23T05:33:10.569Z,44.67
2018-08-23T05:35:39.045Z,46.33
2018-08-23T05:38:08.180Z,46.30
2018-08-23T05:40:42.558Z,46.50
2018-08-23T05:43:11.218Z,46.30
2018-08-23T05:45:44.671Z,43.77
2018-08-23T05:48:20.674Z,45.75
2018-08-23T05:50:49.009Z,46.08
2018-08-23T05:53:18.295Z,44.75
2018-08-23T05:55:48.807Z,43.70
2018-08-23T05:58:32.933Z,42.48
2018-08-23T06:01:01.532Z,41.88
2018-08-23T06:03:29.932Z,41.65
2018-08-23T06:05:58.461Z,43.00
2018-08-23T06:08:26.811Z,41.75
2018-08-23T06:10:59.398Z,42.00
2018-08-23T06:13:27.740Z,41.10
2018-08-23T06:15:57.137Z,43.20
2018-08-23T06:18:26.232Z,45.38
2018-08-23T06:20:54.870Z,44.70
2018-08-23T06:23:33.311Z,45.65
2018-08-23T06:26:01.685Z,43.60
2018-08-23T06:28:30.044Z,43.92
2018-08-23T06:30:59.510Z,42.20
2018-08-23T06:33:36.884Z,43.23
2018-08-23T06:36:06.411Z,45.40
2018-08-23T06:38:35.770Z,47.45
2018-08-23T06:41:05.319Z,48.15
2018-08-23T06:43:34.387Z,49.33
2018-08-23T06:46:03.330Z,49.10
2018-08-23T06:48:31.996Z,49.73
2018-08-23T06:51:01.356Z,47.73
2018-08-23T06:53:40.293Z,50.60
2018-08-23T06:56:08.997Z,48.63
2018-08-23T06:58:37.660Z,49.42
2018-08-23T07:01:11.264Z,48.25
2018-08-23T07:03:46.185Z,48.50
2018-08-23T07:06:14.511Z,48.10
2018-08-23T07:08:42.823Z,47.38
2018-08-23T07:11:20.706Z,47.45
2018-08-23T07:13:56.327Z,46.03
2018-08-23T07:16:24.743Z,46.70
2018-08-23T07:18:53.077Z,49.05
2018-08-23T07:21:21.409Z,48.53
2018-08-23T07:23:49.756Z,48.55
2018-08-23T07:26:18.145Z,47.40
2018-08-23T07:28:46.459Z,50.48
2018-08-23T07:31:14.793Z,48.85
2018-08-23T07:33:45.022Z,50.45
2018-08-23T07:36:24.864Z,49.77
2018-08-23T07:38:53.144Z,46.63
2018-08-23T07:41:21.493Z,48.70
2018-08-23T07:43:49.806Z,47.50
2018-08-23T07:46:18.203Z,46.90
2018-08-23T07:48:46.528Z,47.25
2018-08-23T07:51:20.358Z,41.75
2018-08-23T07:53:48.763Z,41.50
2018-08-23T07:56:26.368Z,41.40
2018-08-23T07:58:55.891Z,41.47
2018-08-23T08:01:28.595Z,42.47
2018-08-23T08:03:57.819Z,41.48
2018-08-23T08:06:27.056Z,40.40
2018-08-23T08:08:56.871Z,38.33
2018-08-23T08:11:25.219Z,37.08
2018-08-23T08:13:58.917Z,35.93
2018-08-23T08:16:32.695Z,35.43
2018-08-23T08:19:01.177Z,32.75
2018-08-23T08:21:29.523Z,32.17
2018-08-23T08:23:59.040Z,29.72
2018-08-23T08:26:30.165Z,29.57
2018-08-23T08:28:58.655Z,27.33
2018-08-23T08:31:27.000Z,29.17
2018-08-23T08:33:59.344Z,29.60
2018-08-23T08:36:31.665Z,28.77
2018-08-23T08:39:00.883Z,28.87
2018-08-23T08:41:34.074Z,29.37
2018-08-23T08:44:02.583Z,28.60
2018-08-23T08:46:31.047Z,26.40
2018-08-23T08:48:59.552Z,26.80
2018-08-23T08:51:29.609Z,27.22
2018-08-23T08:53:59.517Z,26.55
2018-08-23T08:56:33.726Z,25.70
2018-08-23T08:59:02.072Z,24.47
2018-08-23T09:01:37.072Z,25.95
2018-08-23T09:04:05.474Z,25.40
2018-08-23T09:06:50.135Z,25.43
2018-08-23T09:09:36.538Z,23.50
2018-08-23T09:12:07.391Z,19.90
2018-08-23T09:14:36.339Z,22.87
2018-08-23T09:17:21.477Z,21.57
2018-08-23T09:19:57.298Z,21.85
2018-08-23T09:22:25.663Z,22.45
2018-08-23T09:24:53.997Z,20.20
2018-08-23T09:27:22.411Z,22.93
2018-08-23T09:29:50.718Z,22.85
2018-08-23T09:32:24.443Z,22.30
2018-08-23T09:35:00.077Z,20.02
2018-08-23T09:37:29.302Z,21.05
2018-08-23T09:39:57.790Z,21.17
2018-08-23T09:42:30.248Z,20.10
2018-08-23T09:45:09.108Z,19.62
2018-08-23T09:47:37.415Z,18.48
2018-08-23T09:50:06.170Z,13.87
2018-08-23T09:52:40.893Z,13.68
2018-08-23T09:55:10.808Z,12.55
2018-08-23T09:57:39.316Z,12.00
2018-08-23T10:00:10.030Z,11.80
2018-08-23T10:02:43.664Z,12.40
2018-08-23T10:05:17.385Z,17.48
2018-08-23T10:07:51.231Z,19.92
2018-08-23T10:10:24.939Z,15.53
2018-08-23T10:12:58.767Z,12.88
2018-08-23T10:15:32.498Z,13.15
2018-08-23T10:18:06.518Z,11.73
2018-08-23T10:20:44.910Z,13.08
2018-08-23T10:23:19.113Z,13.83
2018-08-23T10:25:49.673Z,14.28
2018-08-23T10:28:19.267Z,14.33
2018-08-23T10:30:48.004Z,12.73
2018-08-23T10:33:16.483Z,12.82
2018-08-23T10:35:47.329Z,12.63
2018-08-23T10:38:17.274Z,11.68
2018-08-23T10:40:46.720Z,12.95
2018-08-23T10:43:15.541Z,12.60
2018-08-23T10:45:44.213Z,13.20
2018-08-23T10:48:18.858Z,12.10
2018-08-23T10:50:48.196Z,10.45
2018-08-23T10:53:16.931Z,14.50
2018-08-23T10:55:45.522Z,13.03
2018-08-23T10:58:14.299Z,12.40
2018-08-23T11:00:42.897Z,14.90
2018-08-23T11:03:11.311Z,12.70
2018-08-23T11:05:39.646Z,10.40
2018-08-23T11:08:13.270Z,10.00
2018-08-23T11:10:46.953Z,9.78
2018-08-23T11:13:20.598Z,11.40
2018-08-23T11:15:48.951Z,14.57
2018-08-23T11:18:22.582Z,13.05
2018-08-23T11:20:51.451Z,10.20
2018-08-23T11:23:25.430Z,11.43
2018-08-23T11:25:53.782Z,10.30
2018-08-23T11:28:24.136Z,11.63
2018-08-23T11:30:53.124Z,9.90
2018-08-23T11:33:21.483Z,9.00
2018-08-23T11:35:49.845Z,10.60
2018-08-23T11:38:18.185Z,9.75
2018-08-23T11:40:46.509Z,8.70
2018-08-23T11:43:14.837Z,10.03
2018-08-23T11:45:43.185Z,9.50
2018-08-23T11:48:11.553Z,9.35
2018-08-23T11:50:39.889Z,10.58
2018-08-23T11:53:08.327Z,11.38
2018-08-23T11:55:36.705Z,10.13
2018-08-23T11:58:05.095Z,9.13
2018-08-23T12:00:33.397Z,8.90
2018-08-23T12:03:01.748Z,9.60
2018-08-23T12:05:30.418Z,10.15
2018-08-23T12:07:58.763Z,13.20
2018-08-23T12:10:27.119Z,13.00
2018-08-23T12:12:55.551Z,10.40
2018-08-23T12:15:32.839Z,10.80
2018-08-23T12:18:01.303Z,11.48
2018-08-23T12:20:29.590Z,9.00
2018-08-23T12:22:57.948Z,9.43
2018-08-23T12:25:26.347Z,14.28
2018-08-23T12:27:59.869Z,9.78
2018-08-23T12:30:28.301Z,7.70
2018-08-23T12:32:56.737Z,9.40
2018-08-23T12:35:26.083Z,14.70
2018-08-23T12:38:01.422Z,13.30
2018-08-23T12:40:35.820Z,12.00
2018-08-23T12:43:09.880Z,13.88
2018-08-23T12:45:40.335Z,19.07
2018-08-23T12:48:09.761Z,12.18
2018-08-23T12:50:38.194Z,11.22
2018-08-23T12:53:06.707Z,8.50
2018-08-23T12:55:35.352Z,10.05
2018-08-23T12:58:05.036Z,9.10
2018-08-23T13:00:33.405Z,11.57
2018-08-23T13:03:01.870Z,8.55
2018-08-23T13:05:30.098Z,8.93
2018-08-23T13:07:58.573Z,8.30
2018-08-23T13:10:26.912Z,9.20
2018-08-23T13:12:55.296Z,9.35
2018-08-23T13:15:23.688Z,7.62
2018-08-23T13:17:52.125Z,6.95
2018-08-23T13:20:20.452Z,7.00
2018-08-23T13:22:48.799Z,6.90
2018-08-23T13:25:17.107Z,7.70
2018-08-23T13:27:45.537Z,8.35
2018-08-23T13:30:13.876Z,8.73
2018-08-23T13:32:42.245Z,8.30
2018-08-23T13:35:10.621Z,7.27
2018-08-23T13:37:38.987Z,7.20
2018-08-23T13:40:11.563Z,8.95
2018-08-23T13:42:40.059Z,10.20
2018-08-23T13:45:08.504Z,13.35
2018-08-23T13:47:36.887Z,6.90
2018-08-23T13:50:05.227Z,9.70
2018-08-23T13:52:33.553Z,9.90
2018-08-23T13:55:01.963Z,11.25
2018-08-23T13:57:30.298Z,12.10
2018-08-23T13:59:58.658Z,11.65
2018-08-23T14:02:27.000Z,7.60
2018-08-23T14:04:55.703Z,7.00
2018-08-23T14:07:24.132Z,6.60
2018-08-23T14:09:52.386Z,6.60
2018-08-23T14:12:20.688Z,5.85
2018-08-23T14:14:49.016Z,6.80
2018-08-23T14:17:17.323Z,7.17
2018-08-23T14:19:45.708Z,8.47
2018-08-23T14:22:14.059Z,7.87
2018-08-23T14:24:42.368Z,8.45
2018-08-23T14:27:10.720Z,8.10
2018-08-23T14:29:38.995Z,7.50
2018-08-23T14:32:07.367Z,7.17
2018-08-23T14:34:35.691Z,7.50
2018-08-23T14:37:04.018Z,6.80
2018-08-23T14:39:32.550Z,7.40
2018-08-23T14:42:00.863Z,7.62
2018-08-23T14:44:29.186Z,6.47
2018-08-23T14:47:02.888Z,6.28
2018-08-23T14:49:36.072Z,8.18
2018-08-23T14:52:05.788Z,8.40
2018-08-23T14:54:39.449Z,7.30
2018-08-23T14:57:13.136Z,6.70
2018-08-23T14:59:41.673Z,6.67
2018-08-23T15:02:10.000Z,6.90
2018-08-23T15:04:38.446Z,6.60
2018-08-23T15:07:07.132Z,5.40
2018-08-23T15:09:35.477Z,6.40
2018-08-23T15:12:03.992Z,6.78
2018-08-23T15:14:32.345Z,6.78
2018-08-23T15:17:00.696Z,5.97
2018-08-23T15:19:29.048Z,6.00
2018-08-23T15:21:57.384Z,5.42
2018-08-23T15:24:25.691Z,6.15
2018-08-23T15:26:54.055Z,7.30
2018-08-23T15:29:22.435Z,7.40
2018-08-23T15:31:50.747Z,7.30
2018-08-23T15:34:19.082Z,7.00
2018-08-23T15:36:47.411Z,6.72
2018-08-23T15:39:16.492Z,6.70
2018-08-23T15:41:44.872Z,7.50
2018-08-23T15:44:14.071Z,7.45
2018-08-23T15:46:49.252Z,6.90
2018-08-23T15:49:17.812Z,6.40
2018-08-23T15:51:46.378Z,6.90
2018-08-23T15:54:19.030Z,5.87
2018-08-23T15:56:47.521Z,6.58
2018-08-23T15:59:16.139Z,5.80
2018-08-23T16:01:44.489Z,6.40
2018-08-23T16:04:12.861Z,6.12
2018-08-23T16:06:41.208Z,6.17
2018-08-23T16:09:10.711Z,5.72
2018-08-23T16:11:39.108Z,5.50
2018-08-23T16:14:07.714Z,5.85
2018-08-23T16:16:41.545Z,6.80
2018-08-23T16:19:15.306Z,6.20
2018-08-23T16:21:43.636Z,6.28
2018-08-23T16:24:11.950Z,6.03
2018-08-23T16:26:46.370Z,5.60
2018-08-23T16:29:14.672Z,6.37
2018-08-23T16:31:42.994Z,6.20
2018-08-23T16:34:11.307Z,6.45
2018-08-23T16:36:39.654Z,6.87
2018-08-23T16:39:08.564Z,6.58
2018-08-23T16:41:36.934Z,6.90
2018-08-23T16:44:05.301Z,7.65
2018-08-23T16:46:33.643Z,8.80
2018-08-23T16:49:01.968Z,9.20
2018-08-23T16:51:30.258Z,9.10
2018-08-23T16:53:58.664Z,8.55
2018-08-23T16:56:27.007Z,9.70
2018-08-23T16:58:55.428Z,8.98
2018-08-23T17:01:23.767Z,11.60
2018-08-23T17:03:53.128Z,9.98
2018-08-23T17:06:22.371Z,13.80
2018-08-23T17:08:51.213Z,13.05
2018-08-23T17:11:19.553Z,13.58
2018-08-23T17:13:47.879Z,11.93
2018-08-23T17:16:21.549Z,14.40
2018-08-23T17:18:50.101Z,15.40
2018-08-23T17:21:18.459Z,16.52
2018-08-23T17:23:46.792Z,19.60
2018-08-23T17:26:15.113Z,12.53
2018-08-23T17:28:43.452Z,13.32
2018-08-23T17:31:12.142Z,12.50
2018-08-23T17:33:40.474Z,14.63
2018-08-23T17:36:08.843Z,12.45
2018-08-23T17:38:37.286Z,12.07
2018-08-23T17:41:05.700Z,9.60
2018-08-23T17:43:34.007Z,12.55
2018-08-23T17:46:02.385Z,12.30
2018-08-23T17:48:30.770Z,20.10
2018-08-23T17:50:59.035Z,15.35
2018-08-23T17:53:27.351Z,12.20
2018-08-23T17:55:55.717Z,13.40
2018-08-23T17:58:24.080Z,15.93
2018-08-23T18:00:52.619Z,10.78
2018-08-23T18:03:20.965Z,14.23
2018-08-23T18:05:49.302Z,11.10
2018-08-23T18:08:17.630Z,11.55
2018-08-23T18:10:45.989Z,13.70
2018-08-23T18:13:14.290Z,12.43
2018-08-23T18:15:47.870Z,11.60
2018-08-23T18:18:16.157Z,12.40
2018-08-23T18:20:44.491Z,13.30
2018-08-23T18:23:12.873Z,12.73
2018-08-23T18:25:41.235Z,12.88
2018-08-23T18:28:09.612Z,12.68
2018-08-23T18:30:37.976Z,15.53
2018-08-23T18:33:06.343Z,23.40
2018-08-23T18:35:34.658Z,17.10
2018-08-23T18:38:02.987Z,16.70
2018-08-23T18:40:31.305Z,12.50
2018-08-23T18:42:59.602Z,13.28
2018-08-23T18:45:27.945Z,14.83
2018-08-23T18:47:56.278Z,14.20
2018-08-23T18:50:24.637Z,14.60
2018-08-23T18:52:52.949Z,16.77
2018-08-23T18:55:21.255Z,15.10
2018-08-23T18:57:49.591Z,20.85
2018-08-23T19:00:18.024Z,14.05
2018-08-23T19:02:46.313Z,13.85
2018-08-23T19:05:14.653Z,12.75
2018-08-23T19:07:43.770Z,16.73
2018-08-23T19:10:12.656Z,16.97
2018-08-23T19:12:41.025Z,13.72
2018-08-23T19:15:09.556Z,13.95
2018-08-23T19:17:40.079Z,35.75
2018-08-23T19:20:09.790Z,15.80
2018-08-23T19:22:38.234Z,12.98
2018-08-23T19:25:07.627Z,14.30
2018-08-23T19:27:35.910Z,26.23
2018-08-23T19:30:04.665Z,16.93
2018-08-23T19:32:33.044Z,17.80
2018-08-23T19:35:01.368Z,14.40
2018-08-23T19:37:29.695Z,14.70
2018-08-23T19:39:58.035Z,15.53
2018-08-23T19:42:26.402Z,21.90
2018-08-23T19:44:59.297Z,12.80
2018-08-23T19:47:33.045Z,11.10
2018-08-23T19:50:02.613Z,10.35
2018-08-23T19:52:30.926Z,9.80
2018-08-23T19:54:59.261Z,10.70
2018-08-23T19:57:27.728Z,9.93
2018-08-23T19:59:56.052Z,9.90
2018-08-23T20:02:24.349Z,9.60
2018-08-23T20:04:52.735Z,9.50
2018-08-23T20:07:21.100Z,9.63
2018-08-23T20:09:49.442Z,9.25
2018-08-23T20:12:17.878Z,9.10
2018-08-23T20:14:46.202Z,9.20
2018-08-23T20:17:14.583Z,9.40
2018-08-23T20:19:43.752Z,8.80
2018-08-23T20:22:12.144Z,9.30
2018-08-23T20:24:40.456Z,10.28
2018-08-23T20:27:08.839Z,9.63
2018-08-23T20:29:37.151Z,9.60
2018-08-23T20:32:05.544Z,9.20
2018-08-23T20:34:33.885Z,9.10
2018-08-23T20:37:02.242Z,8.87
2018-08-23T20:39:30.579Z,8.50
2018-08-23T20:41:58.928Z,8.03
2018-08-23T20:44:27.596Z,7.87
2018-08-23T20:46:56.491Z,8.08
2018-08-23T20:49:24.870Z,7.50
2018-08-23T20:51:53.206Z,8.10
2018-08-23T20:54:21.632Z,8.58
2018-08-23T20:56:49.967Z,8.30
2018-08-23T20:59:18.346Z,7.70
2018-08-23T21:01:46.687Z,8.20
2018-08-23T21:04:15.019Z,7.85
2018-08-23T21:06:43.375Z,7.50
2018-08-23T21:09:13.071Z,7.40
2018-08-23T21:11:41.478Z,7.10
2018-08-23T21:14:10.542Z,7.55
2018-08-23T21:16:38.950Z,7.28
2018-08-23T21:19:07.318Z,7.25
2018-08-23T21:21:35.628Z,7.00
2018-08-23T21:24:03.965Z,6.90
2018-08-23T21:26:32.432Z,6.60
2018-08-23T21:29:00.774Z,7.08
2018-08-23T21:31:29.135Z,7.28
2018-08-23T21:33:57.421Z,7.70
2018-08-23T21:36:25.734Z,7.10
2018-08-23T21:38:54.073Z,7.50
2018-08-23T21:41:22.452Z,7.60
2018-08-23T21:43:50.764Z,7.20
2018-08-23T21:46:19.119Z,7.20
2018-08-23T21:48:47.432Z,7.50
2018-08-23T21:51:15.769Z,7.35
2018-08-23T21:53:44.117Z,7.65
2018-08-23T21:56:12.400Z,7.50
2018-08-23T21:58:40.765Z,7.75
2018-08-23T22:01:10.057Z,7.47
2018-08-23T22:03:38.940Z,6.50
2018-08-23T22:06:07.282Z,6.70
2018-08-23T22:08:35.801Z,5.60
2018-08-23T22:11:04.100Z,5.90
2018-08-23T22:13:32.761Z,5.37
2018-08-23T22:16:01.113Z,5.83
2018-08-23T22:18:29.455Z,5.72
2018-08-23T22:20:57.758Z,4.80
2018-08-23T22:23:26.071Z,5.25
2018-08-23T22:25:54.350Z,4.97
2018-08-23T22:28:22.655Z,4.47
2018-08-23T22:30:50.997Z,4.40
2018-08-23T22:33:22.130Z,4.17
2018-08-23T22:35:50.440Z,4.08
2018-08-23T22:38:18.790Z,3.90
2018-08-23T22:40:47.154Z,3.98
2018-08-23T22:43:15.464Z,4.00
2018-08-23T22:45:43.771Z,3.90
2018-08-23T22:48:12.080Z,3.62
2018-08-23T22:50:40.397Z,5.65
2018-08-23T22:53:08.687Z,3.92
2018-08-23T22:55:37.105Z,3.90
2018-08-23T22:58:05.859Z,4.40
2018-08-23T23:00:40.257Z,4.10
2018-08-23T23:03:14.012Z,4.45
2018-08-23T23:05:42.727Z,3.37
2018-08-23T23:08:17.653Z,3.90
2018-08-23T23:10:45.964Z,3.80
2018-08-23T23:13:14.273Z,4.30
2018-08-23T23:15:42.620Z,4.60
2018-08-23T23:18:10.935Z,4.30
2018-08-23T23:20:39.327Z,4.75
2018-08-23T23:23:07.678Z,4.10
2018-08-23T23:25:36.014Z,4.30
2018-08-23T23:28:04.356Z,4.00
2018-08-23T23:30:32.746Z,3.98
2018-08-23T23:33:01.062Z,3.50
2018-08-23T23:35:29.394Z,3.40
2018-08-23T23:37:57.720Z,3.55
2018-08-23T23:40:26.053Z,3.77
2018-08-23T23:42:54.411Z,3.50
2018-08-23T23:45:22.713Z,3.00
2018-08-23T23:47:51.043Z,3.12
2018-08-23T23:50:19.338Z,2.90
2018-08-23T23:52:47.655Z,2.87
2018-08-23T23:55:15.977Z,3.10
2018-08-23T23:57:44.371Z,3.07
